createdAt,value
2019-03-16T00:01:40.459Z,6.33
2019-03-16T00:04:09.587Z,4.60
2019-03-16T00:06:38.643Z,8.50
2019-03-16T00:09:08.618Z,6.13
2019-03-16T00:11:37.760Z,8.20
2019-03-16T00:14:06.906Z,7.27
2019-03-16T00:16:35.991Z,9.27
2019-03-16T00:19:05.089Z,5.53
2019-03-16T00:21:34.164Z,6.43
2019-03-16T00:24:03.260Z,6.73
2019-03-16T00:26:32.331Z,5.93
2019-03-16T00:29:01.456Z,6.23
2019-03-16T00:31:30.542Z,6.93
2019-03-16T00:33:59.576Z,9.93
2019-03-16T00:36:28.660Z,5.57
2019-03-16T00:38:57.745Z,7.13
2019-03-16T00:41:26.811Z,7.40
2019-03-16T00:43:55.922Z,6.80
2019-03-16T00:46:24.993Z,6.23
2019-03-16T00:48:54.163Z,6.00
2019-03-16T00:51:23.240Z,7.00
2019-03-16T00:53:52.358Z,6.97
2019-03-16T00:56:21.453Z,7.10
2019-03-16T00:58:50.544Z,7.63
2019-03-16T01:01:19.603Z,6.07
2019-03-16T01:03:48.663Z,8.13
2019-03-16T01:06:17.743Z,8.03
2019-03-16T01:08:46.920Z,6.67
2019-03-16T01:11:15.995Z,8.63
2019-03-16T01:13:45.096Z,6.43
2019-03-16T01:16:14.158Z,8.50
2019-03-16T01:18:43.260Z,10.43
2019-03-16T01:21:12.343Z,9.20
2019-03-16T01:23:41.518Z,9.93
2019-03-16T01:26:10.596Z,9.40
2019-03-16T01:28:39.672Z,7.83
2019-03-16T01:31:08.742Z,8.77
2019-03-16T01:33:37.865Z,8.27
2019-03-16T01:36:06.943Z,9.67
2019-03-16T01:38:36.078Z,7.47
2019-03-16T01:41:05.165Z,8.57
2019-03-16T01:43:34.387Z,6.50
2019-03-16T01:46:03.456Z,6.27
2019-03-16T01:48:32.521Z,5.60
2019-03-16T01:51:01.563Z,9.13
2019-03-16T01:53:30.679Z,7.47
2019-03-16T01:55:59.856Z,7.33
2019-03-16T01:58:28.971Z,6.43
2019-03-16T02:00:58.062Z,7.87
2019-03-16T02:03:27.166Z,7.60
2019-03-16T02:05:56.349Z,5.43
2019-03-16T02:08:25.513Z,5.13
2019-03-16T02:10:54.708Z,5.00
2019-03-16T02:13:23.745Z,5.20
2019-03-16T02:15:52.829Z,7.23
2019-03-16T02:18:21.955Z,6.77
2019-03-16T02:20:50.954Z,7.33
2019-03-16T02:23:20.032Z,8.10
2019-03-16T02:25:49.143Z,5.07
2019-03-16T02:28:18.204Z,5.60
2019-03-16T02:30:47.235Z,7.43
2019-03-16T02:33:16.302Z,6.33
2019-03-16T02:35:45.384Z,6.43
2019-03-16T02:38:14.572Z,5.83
2019-03-16T02:40:43.672Z,5.40
2019-03-16T02:43:12.818Z,5.30
2019-03-16T02:45:41.894Z,7.07
2019-03-16T02:48:11.084Z,4.30
2019-03-16T02:50:40.153Z,4.90
2019-03-16T02:53:09.138Z,3.60
2019-03-16T02:55:38.238Z,4.07
2019-03-16T02:58:07.348Z,4.00
2019-03-16T03:00:36.483Z,3.13
2019-03-16T03:03:05.547Z,2.80
2019-03-16T03:05:34.672Z,3.77
2019-03-16T03:08:03.718Z,3.07
2019-03-16T03:10:32.877Z,2.70
2019-03-16T03:13:01.952Z,2.33
2019-03-16T03:15:31.049Z,2.53
2019-03-16T03:18:00.222Z,2.70
2019-03-16T03:20:29.347Z,2.60
2019-03-16T03:22:58.406Z,2.30
2019-03-16T03:25:27.492Z,3.33
2019-03-16T03:27:56.583Z,3.10
2019-03-16T03:30:25.672Z,5.93
2019-03-16T03:32:54.757Z,3.47
2019-03-16T03:35:29.054Z,4.03
2019-03-16T03:37:54.664Z,3.30
2019-03-16T03:40:23.743Z,5.47
2019-03-16T03:42:52.810Z,4.53
2019-03-16T03:45:21.947Z,4.37
2019-03-16T03:47:51.072Z,4.57
2019-03-16T03:50:20.062Z,5.37
2019-03-16T03:52:49.138Z,7.70
2019-03-16T03:55:18.261Z,6.63
2019-03-16T03:57:47.354Z,9.63
2019-03-16T04:00:16.490Z,6.70
2019-03-16T04:02:45.591Z,10.00
2019-03-16T04:05:14.823Z,11.43
2019-03-16T04:07:43.958Z,10.80
2019-03-16T04:10:13.417Z,11.53
2019-03-16T04:12:42.487Z,10.70
2019-03-16T04:15:11.802Z,13.50
2019-03-16T04:17:40.871Z,10.47
2019-03-16T04:20:10.144Z,9.00
2019-03-16T04:22:39.194Z,11.17
2019-03-16T04:25:08.461Z,10.43
2019-03-16T04:27:37.591Z,14.20
2019-03-16T04:30:06.708Z,11.23
2019-03-16T04:32:35.774Z,15.23
2019-03-16T04:35:04.960Z,8.83
2019-03-16T04:37:33.909Z,12.10
2019-03-16T04:40:02.969Z,10.20
2019-03-16T04:42:31.941Z,11.53
2019-03-16T04:45:01.040Z,11.07
2019-03-16T04:47:30.143Z,12.13
2019-03-16T04:49:59.231Z,12.47
2019-03-16T04:52:28.303Z,9.03
2019-03-16T04:54:57.413Z,8.73
2019-03-16T04:57:26.483Z,8.93
2019-03-16T04:59:55.594Z,10.20
2019-03-16T05:02:24.738Z,9.00
2019-03-16T05:04:53.806Z,7.27
2019-03-16T05:07:22.941Z,8.97
2019-03-16T05:09:51.923Z,9.97
2019-03-16T05:12:21.041Z,7.97
2019-03-16T05:14:50.142Z,10.17
2019-03-16T05:17:19.224Z,9.27
2019-03-16T05:19:48.298Z,7.80
2019-03-16T05:22:17.342Z,9.40
2019-03-16T05:24:46.446Z,8.63
2019-03-16T05:27:15.503Z,12.90
2019-03-16T05:29:44.554Z,6.27
2019-03-16T05:32:13.644Z,7.40
2019-03-16T05:34:55.645Z,9.13
2019-03-16T05:37:13.527Z,6.37
2019-03-16T05:39:42.618Z,6.43
2019-03-16T05:42:11.698Z,7.93
2019-03-16T05:44:40.763Z,9.63
2019-03-16T05:47:09.876Z,7.40
2019-03-16T05:49:38.944Z,7.53
2019-03-16T05:52:08.029Z,4.80
2019-03-16T05:54:37.100Z,8.07
2019-03-16T05:57:06.092Z,6.93
2019-03-16T05:59:35.181Z,7.30
2019-03-16T06:02:04.241Z,4.87
2019-03-16T06:04:33.336Z,8.97
2019-03-16T06:07:02.447Z,7.03
2019-03-16T06:09:31.435Z,7.10
2019-03-16T06:12:00.545Z,9.43
2019-03-16T06:14:29.593Z,5.73
2019-03-16T06:16:58.709Z,7.37
2019-03-16T06:19:27.642Z,4.30
2019-03-16T06:21:56.785Z,7.93
2019-03-16T06:24:28.096Z,5.97
2019-03-16T06:26:56.709Z,5.97
2019-03-16T06:29:25.795Z,7.77
2019-03-16T06:31:54.893Z,5.10
2019-03-16T06:34:23.967Z,5.17
2019-03-16T06:36:53.062Z,6.53
2019-03-16T06:39:22.164Z,4.47
2019-03-16T06:41:51.334Z,8.10
2019-03-16T06:44:20.516Z,7.20
2019-03-16T06:46:49.512Z,3.77
2019-03-16T06:49:18.574Z,9.30
2019-03-16T06:51:47.680Z,6.93
2019-03-16T06:54:16.766Z,7.03
2019-03-16T06:56:45.854Z,4.83
2019-03-16T06:59:14.901Z,5.17
2019-03-16T07:01:44.006Z,3.63
2019-03-16T07:04:13.039Z,6.13
2019-03-16T07:06:42.133Z,7.83
2019-03-16T07:09:11.125Z,6.03
2019-03-16T07:11:40.209Z,2.90
2019-03-16T07:14:09.331Z,5.40
2019-03-16T07:16:38.377Z,5.13
2019-03-16T07:19:07.484Z,3.37
2019-03-16T07:21:36.565Z,5.90
2019-03-16T07:24:05.667Z,4.20
2019-03-16T07:26:34.724Z,5.07
2019-03-16T07:29:03.894Z,5.07
2019-03-16T07:31:32.953Z,3.90
2019-03-16T07:34:02.115Z,5.00
2019-03-16T07:36:31.196Z,6.83
2019-03-16T07:39:00.290Z,5.10
2019-03-16T07:41:29.284Z,4.70
2019-03-16T07:43:58.316Z,5.33
2019-03-16T07:46:27.372Z,3.80
2019-03-16T07:48:56.472Z,4.20
2019-03-16T07:51:25.563Z,3.97
2019-03-16T07:53:54.602Z,3.27
2019-03-16T07:56:23.786Z,3.13
2019-03-16T07:58:52.880Z,3.50
2019-03-16T08:01:21.939Z,4.37
2019-03-16T08:03:51.015Z,3.90
2019-03-16T08:06:20.117Z,4.40
2019-03-16T08:08:49.282Z,4.50
2019-03-16T08:11:18.419Z,3.80
2019-03-16T08:13:47.616Z,3.47
2019-03-16T08:16:16.753Z,3.03
2019-03-16T08:18:45.776Z,3.17
2019-03-16T08:21:14.872Z,3.50
2019-03-16T08:23:43.944Z,3.07
2019-03-16T08:26:13.017Z,2.53
2019-03-16T08:28:42.155Z,2.10
2019-03-16T08:31:11.257Z,2.90
2019-03-16T08:33:40.335Z,3.47
2019-03-16T08:36:09.448Z,1.80
2019-03-16T08:38:38.442Z,2.07
2019-03-16T08:41:07.466Z,2.40
2019-03-16T08:43:36.611Z,2.90
2019-03-16T08:46:05.739Z,2.20
2019-03-16T08:48:35.662Z,2.90
2019-03-16T08:51:04.768Z,2.27
2019-03-16T08:53:33.845Z,3.53
2019-03-16T08:56:02.872Z,2.30
2019-03-16T08:58:31.991Z,2.37
2019-03-16T09:01:01.096Z,2.60
2019-03-16T09:03:42.690Z,2.80
2019-03-16T09:06:00.999Z,2.63
2019-03-16T09:08:30.131Z,2.23
2019-03-16T09:10:59.226Z,2.30
2019-03-16T09:13:28.243Z,2.63
2019-03-16T09:15:57.349Z,2.50
2019-03-16T09:18:26.413Z,1.80
2019-03-16T09:20:55.519Z,2.60
2019-03-16T09:23:24.612Z,2.30
2019-03-16T09:25:54.090Z,2.53
2019-03-16T09:28:23.183Z,3.33
2019-03-16T09:30:52.271Z,2.63
2019-03-16T09:33:21.532Z,3.73
2019-03-16T09:35:50.821Z,3.30
2019-03-16T09:38:19.894Z,2.40
2019-03-16T09:40:49.015Z,2.00
2019-03-16T09:43:18.090Z,2.20
2019-03-16T09:45:47.232Z,1.67
2019-03-16T09:48:16.295Z,1.60
2019-03-16T09:50:45.389Z,1.37
2019-03-16T09:53:14.476Z,1.67
2019-03-16T09:55:43.583Z,1.57
2019-03-16T09:58:12.686Z,2.10
2019-03-16T10:00:41.765Z,1.50
2019-03-16T10:03:10.860Z,1.70
2019-03-16T10:05:39.949Z,1.90
2019-03-16T10:08:09.066Z,2.50
2019-03-16T10:10:38.146Z,2.17
2019-03-16T10:13:07.249Z,2.60
2019-03-16T10:15:36.422Z,2.73
2019-03-16T10:18:05.531Z,2.13
2019-03-16T10:20:34.637Z,1.97
2019-03-16T10:23:03.807Z,2.80
2019-03-16T10:25:32.894Z,3.10
2019-03-16T10:28:01.966Z,2.33
2019-03-16T10:30:31.091Z,3.73
2019-03-16T10:33:00.278Z,2.10
2019-03-16T10:35:29.439Z,1.73
2019-03-16T10:37:58.534Z,2.30
2019-03-16T10:40:27.611Z,1.50
2019-03-16T10:42:56.688Z,1.67
2019-03-16T10:45:25.786Z,1.60
2019-03-16T10:47:54.778Z,1.97
2019-03-16T10:50:23.848Z,1.63
2019-03-16T10:52:52.960Z,1.90
2019-03-16T10:55:21.956Z,2.20
2019-03-16T10:57:53.559Z,3.67
2019-03-16T11:00:22.709Z,4.33
2019-03-16T11:02:51.818Z,4.03
2019-03-16T11:05:20.911Z,5.37
2019-03-16T11:07:50.031Z,2.90
2019-03-16T11:10:19.081Z,2.30
2019-03-16T11:12:48.077Z,6.83
2019-03-16T11:15:17.163Z,1.77
2019-03-16T11:17:46.277Z,2.33
2019-03-16T11:20:15.467Z,2.27
2019-03-16T11:22:44.555Z,1.90
2019-03-16T11:25:13.642Z,3.07
2019-03-16T11:27:42.749Z,2.40
2019-03-16T11:30:12.069Z,3.30
2019-03-16T11:32:41.202Z,3.70
2019-03-16T11:35:10.760Z,2.70
2019-03-16T11:37:40.060Z,3.07
2019-03-16T11:40:11.606Z,3.00
2019-03-16T11:42:40.744Z,3.30
2019-03-16T11:45:10.103Z,5.47
2019-03-16T11:47:39.221Z,4.00
2019-03-16T11:50:08.675Z,3.70
2019-03-16T11:52:37.739Z,3.97
2019-03-16T11:55:06.856Z,3.97
2019-03-16T11:57:35.991Z,4.67
2019-03-16T12:00:05.223Z,4.77
2019-03-16T12:02:34.323Z,4.80
2019-03-16T12:05:03.413Z,4.20
2019-03-16T12:07:32.525Z,5.87
2019-03-16T12:10:01.598Z,6.70
2019-03-16T12:12:30.726Z,4.97
2019-03-16T12:14:59.879Z,6.03
2019-03-16T12:17:28.977Z,5.60
2019-03-16T12:19:58.041Z,3.17
2019-03-16T12:22:27.211Z,5.37
2019-03-16T12:24:56.311Z,2.80
2019-03-16T12:27:25.417Z,3.17
2019-03-16T12:29:54.539Z,2.50
2019-03-16T12:32:23.641Z,3.93
2019-03-16T12:34:52.707Z,2.50
2019-03-16T12:37:21.819Z,2.90
2019-03-16T12:39:50.879Z,2.60
2019-03-16T12:42:19.965Z,2.67
2019-03-16T12:44:49.109Z,3.37
2019-03-16T12:47:18.200Z,3.00
2019-03-16T12:49:47.289Z,1.90
2019-03-16T12:52:16.317Z,2.33
2019-03-16T12:54:45.368Z,2.70
2019-03-16T12:57:14.462Z,2.60
2019-03-16T12:59:47.051Z,3.03
2019-03-16T13:02:14.413Z,2.37
2019-03-16T13:04:43.484Z,2.60
2019-03-16T13:07:12.714Z,4.50
2019-03-16T13:09:42.552Z,3.40
2019-03-16T13:12:11.820Z,3.20
2019-03-16T13:14:40.912Z,3.13
2019-03-16T13:17:09.994Z,2.70
2019-03-16T13:19:39.165Z,3.40
2019-03-16T13:22:08.252Z,2.90
2019-03-16T13:24:37.372Z,2.23
2019-03-16T13:27:06.464Z,2.40
2019-03-16T13:29:35.580Z,4.47
2019-03-16T13:32:04.692Z,4.37
2019-03-16T13:34:33.790Z,3.80
2019-03-16T13:37:02.804Z,3.63
2019-03-16T13:39:31.920Z,4.63
2019-03-16T13:42:00.999Z,3.87
2019-03-16T13:44:30.292Z,2.60
2019-03-16T13:46:59.363Z,3.30
2019-03-16T13:49:28.461Z,3.77
2019-03-16T13:51:57.555Z,3.37
2019-03-16T13:54:26.754Z,4.33
2019-03-16T13:56:55.872Z,3.20
2019-03-16T13:59:25.015Z,3.60
2019-03-16T14:01:54.088Z,3.07
2019-03-16T14:04:23.255Z,3.90
2019-03-16T14:06:52.349Z,3.47
2019-03-16T14:09:21.462Z,3.90
2019-03-16T14:11:50.853Z,4.60
2019-03-16T14:14:19.985Z,4.03
2019-03-16T14:16:49.127Z,5.23
2019-03-16T14:19:18.137Z,3.60
2019-03-16T14:21:47.254Z,2.67
2019-03-16T14:24:16.701Z,2.63
2019-03-16T14:26:45.793Z,2.53
2019-03-16T14:29:14.823Z,3.40
2019-03-16T14:31:43.881Z,2.33
2019-03-16T14:34:12.992Z,3.40
2019-03-16T14:36:42.083Z,5.47
2019-03-16T14:39:11.138Z,2.57
2019-03-16T14:41:40.223Z,2.77
2019-03-16T14:44:09.308Z,3.20
2019-03-16T14:46:38.527Z,3.50
2019-03-16T14:49:07.636Z,3.70
2019-03-16T14:51:36.717Z,3.90
2019-03-16T14:54:05.915Z,3.80
2019-03-16T14:56:34.993Z,5.90
2019-03-16T14:59:04.081Z,3.60
2019-03-16T15:01:33.290Z,3.57
2019-03-16T15:04:02.411Z,3.87
2019-03-16T15:06:31.504Z,2.80
2019-03-16T15:09:00.618Z,2.37
2019-03-16T15:11:29.720Z,2.40
2019-03-16T15:13:58.858Z,2.53
2019-03-16T15:16:27.844Z,2.20
2019-03-16T15:18:56.913Z,2.00
2019-03-16T15:21:25.996Z,3.07
2019-03-16T15:23:55.108Z,3.20
2019-03-16T15:26:24.194Z,2.90
2019-03-16T15:28:55.098Z,2.70
2019-03-16T15:31:24.205Z,2.40
2019-03-16T15:33:53.365Z,3.07
2019-03-16T15:36:22.452Z,2.90
2019-03-16T15:38:51.590Z,2.50
2019-03-16T15:41:20.656Z,2.17
2019-03-16T15:43:49.738Z,2.50
2019-03-16T15:46:18.990Z,2.00
2019-03-16T15:48:48.155Z,1.90
2019-03-16T15:51:17.316Z,2.47
2019-03-16T15:53:46.489Z,1.97
2019-03-16T15:56:15.653Z,2.40
2019-03-16T15:58:44.827Z,2.60
2019-03-16T16:01:13.930Z,2.20
2019-03-16T16:03:43.061Z,2.10
2019-03-16T16:06:12.146Z,2.07
2019-03-16T16:08:41.281Z,2.30
2019-03-16T16:11:10.461Z,2.27
2019-03-16T16:13:39.526Z,1.93
2019-03-16T16:16:09.835Z,2.10
2019-03-16T16:18:38.916Z,2.00
2019-03-16T16:21:08.047Z,1.97
2019-03-16T16:23:37.179Z,1.73
2019-03-16T16:26:06.242Z,1.43
2019-03-16T16:28:35.334Z,1.73
2019-03-16T16:31:15.650Z,1.70
2019-03-16T16:33:35.274Z,2.07
2019-03-16T16:36:04.392Z,1.40
2019-03-16T16:38:33.529Z,1.90
2019-03-16T16:41:02.635Z,1.73
2019-03-16T16:43:31.819Z,3.47
2019-03-16T16:46:00.945Z,1.63
2019-03-16T16:48:30.039Z,1.73
2019-03-16T16:50:59.075Z,1.80
2019-03-16T16:53:28.166Z,1.60
2019-03-16T16:55:57.377Z,1.50
2019-03-16T16:58:26.477Z,1.50
2019-03-16T17:00:55.592Z,1.60
2019-03-16T17:03:24.688Z,2.03
2019-03-16T17:05:53.889Z,1.87
2019-03-16T17:08:22.971Z,1.93
2019-03-16T17:10:52.204Z,1.57
2019-03-16T17:13:21.309Z,1.70
2019-03-16T17:15:50.452Z,2.73
2019-03-16T17:18:19.712Z,2.77
2019-03-16T17:20:48.859Z,1.97
2019-03-16T17:23:17.991Z,3.00
2019-03-16T17:25:47.098Z,4.33
2019-03-16T17:28:16.186Z,2.90
2019-03-16T17:30:45.334Z,3.63
2019-03-16T17:33:14.433Z,3.70
2019-03-16T17:35:43.532Z,4.33
2019-03-16T17:38:12.620Z,4.90
2019-03-16T17:40:41.732Z,5.60
2019-03-16T17:43:10.843Z,7.40
2019-03-16T17:45:40.022Z,4.63
2019-03-16T17:48:09.090Z,5.60
2019-03-16T17:50:38.205Z,4.47
2019-03-16T17:53:07.286Z,4.50
2019-03-16T17:55:36.372Z,5.73
2019-03-16T17:58:05.476Z,8.03
2019-03-16T18:00:34.652Z,10.90
2019-03-16T18:03:03.728Z,7.80
2019-03-16T18:05:32.855Z,6.43
2019-03-16T18:08:01.960Z,6.03
2019-03-16T18:10:31.073Z,4.60
2019-03-16T18:13:00.146Z,5.20
2019-03-16T18:15:29.228Z,4.70
2019-03-16T18:17:58.316Z,5.77
2019-03-16T18:20:27.396Z,4.90
2019-03-16T18:22:56.529Z,4.57
2019-03-16T18:25:25.628Z,6.73
2019-03-16T18:27:54.719Z,6.57
2019-03-16T18:30:23.867Z,4.20
2019-03-16T18:32:52.953Z,5.70
2019-03-16T18:35:22.287Z,4.40
2019-03-16T18:37:51.368Z,4.40
2019-03-16T18:40:20.570Z,4.80
2019-03-16T18:42:49.472Z,5.03
2019-03-16T18:45:18.594Z,5.30
2019-03-16T18:47:47.667Z,5.23
2019-03-16T18:50:16.808Z,5.37
2019-03-16T18:52:46.282Z,5.53
2019-03-16T18:55:15.435Z,5.20
2019-03-16T18:57:44.501Z,6.87
2019-03-16T19:00:14.058Z,5.60
2019-03-16T19:02:43.136Z,6.07
2019-03-16T19:05:12.225Z,6.70
2019-03-16T19:07:41.332Z,6.60
2019-03-16T19:10:11.644Z,6.13
2019-03-16T19:12:40.718Z,7.13
2019-03-16T19:15:11.686Z,6.83
2019-03-16T19:17:40.754Z,6.87
2019-03-16T19:20:10.947Z,6.77
2019-03-16T19:22:40.046Z,7.43
2019-03-16T19:25:10.493Z,7.17
2019-03-16T19:27:39.621Z,6.23
2019-03-16T19:30:10.618Z,8.23
2019-03-16T19:32:39.687Z,6.57
2019-03-16T19:35:08.806Z,7.33
2019-03-16T19:37:37.885Z,7.07
2019-03-16T19:40:08.012Z,7.23
2019-03-16T19:42:37.143Z,6.93
2019-03-16T19:45:06.705Z,7.13
2019-03-16T19:47:35.846Z,8.40
2019-03-16T19:50:05.379Z,7.57
2019-03-16T19:52:34.494Z,8.20
2019-03-16T19:55:03.684Z,7.47
2019-03-16T19:57:32.753Z,8.87
2019-03-16T20:00:01.842Z,8.47
2019-03-16T20:02:30.908Z,8.57
2019-03-16T20:05:00.037Z,8.83
2019-03-16T20:07:29.086Z,8.40
2019-03-16T20:09:58.170Z,8.33
2019-03-16T20:12:27.262Z,8.57
2019-03-16T20:14:56.342Z,9.03
2019-03-16T20:17:25.402Z,8.97
2019-03-16T20:19:54.502Z,11.37
2019-03-16T20:22:23.557Z,8.87
2019-03-16T20:24:52.737Z,8.87
2019-03-16T20:27:21.752Z,8.23
2019-03-16T20:29:50.820Z,7.30
2019-03-16T20:32:19.956Z,8.90
2019-03-16T20:34:49.060Z,7.00
2019-03-16T20:37:18.185Z,6.57
2019-03-16T20:39:47.240Z,5.97
2019-03-16T20:42:16.457Z,6.83
2019-03-16T20:44:45.540Z,6.80
2019-03-16T20:47:14.671Z,6.63
2019-03-16T20:49:43.738Z,8.83
2019-03-16T20:52:12.832Z,7.60
2019-03-16T20:54:41.918Z,9.57
2019-03-16T20:57:11.040Z,7.37
2019-03-16T20:59:40.136Z,7.30
2019-03-16T21:02:09.238Z,6.87
2019-03-16T21:04:38.335Z,6.47
2019-03-16T21:07:07.447Z,6.33
2019-03-16T21:09:36.539Z,5.93
2019-03-16T21:12:05.636Z,6.33
2019-03-16T21:14:34.741Z,5.57
2019-03-16T21:17:03.851Z,5.23
2019-03-16T21:19:32.927Z,6.07
2019-03-16T21:22:02.034Z,6.10
2019-03-16T21:24:31.265Z,5.67
2019-03-16T21:27:00.391Z,5.40
2019-03-16T21:29:29.509Z,6.37
2019-03-16T21:31:58.640Z,4.90
2019-03-16T21:34:27.717Z,5.33
2019-03-16T21:36:56.895Z,5.70
2019-03-16T21:39:25.904Z,5.83
2019-03-16T21:41:54.950Z,6.80
2019-03-16T21:44:24.043Z,7.50
2019-03-16T21:46:53.267Z,6.80
2019-03-16T21:49:22.380Z,7.57
2019-03-16T21:51:51.592Z,6.97
2019-03-16T21:54:20.711Z,6.27
2019-03-16T21:56:49.801Z,6.03
2019-03-16T21:59:18.939Z,7.30
2019-03-16T22:01:48.044Z,6.03
2019-03-16T22:04:17.135Z,5.30
2019-03-16T22:06:46.333Z,5.07
2019-03-16T22:09:15.422Z,4.60
2019-03-16T22:11:44.520Z,3.83
2019-03-16T22:14:13.591Z,3.77
2019-03-16T22:16:42.843Z,4.00
2019-03-16T22:19:11.944Z,3.93
2019-03-16T22:21:41.061Z,3.97
2019-03-16T22:24:10.194Z,3.80
2019-03-16T22:26:39.320Z,4.67
2019-03-16T22:29:08.402Z,4.63
2019-03-16T22:31:37.526Z,4.33
2019-03-16T22:34:06.624Z,4.43
2019-03-16T22:36:36.140Z,3.83
2019-03-16T22:39:07.381Z,3.77
2019-03-16T22:41:36.475Z,3.80
2019-03-16T22:44:05.622Z,3.67
2019-03-16T22:46:34.796Z,3.10
2019-03-16T22:49:03.907Z,3.13
2019-03-16T22:51:33.088Z,3.30
2019-03-16T22:54:02.181Z,3.50
2019-03-16T22:56:31.349Z,3.17
2019-03-16T22:59:00.442Z,3.67
2019-03-16T23:01:29.828Z,3.63
2019-03-16T23:04:06.890Z,2.80
2019-03-16T23:06:29.662Z,3.67
2019-03-16T23:08:58.750Z,3.90
2019-03-16T23:11:27.828Z,3.10
2019-03-16T23:13:56.910Z,3.57
2019-03-16T23:16:26.040Z,3.60
2019-03-16T23:18:55.175Z,3.30
2019-03-16T23:21:24.249Z,3.30
2019-03-16T23:23:53.404Z,3.53
2019-03-16T23:26:22.508Z,3.17
2019-03-16T23:28:51.596Z,3.20
2019-03-16T23:31:20.769Z,3.47
2019-03-16T23:33:49.852Z,3.40
2019-03-16T23:36:19.001Z,3.40
2019-03-16T23:38:48.079Z,3.07
2019-03-16T23:41:17.165Z,3.47
2019-03-16T23:43:46.301Z,3.60
2019-03-16T23:46:15.436Z,3.00
2019-03-16T23:48:44.599Z,3.40
2019-03-16T23:51:13.673Z,3.60
2019-03-16T23:53:42.865Z,3.27
2019-03-16T23:56:11.945Z,3.13
2019-03-16T23:58:41.044Z,3.17
